createdAt,value
2018-08-19T00:01:02.140Z,10.18
2018-08-19T00:03:32.894Z,10.85
2018-08-19T00:06:03.268Z,10.60
2018-08-19T00:08:34.531Z,9.68
2018-08-19T00:11:09.932Z,10.63
2018-08-19T00:13:41.036Z,11.10
2018-08-19T00:16:12.156Z,10.88
2018-08-19T00:18:43.412Z,10.30
2018-08-19T00:21:14.127Z,10.68
2018-08-19T00:23:49.420Z,10.65
2018-08-19T00:26:19.801Z,11.22
2018-08-19T00:28:50.600Z,10.28
2018-08-19T00:31:21.056Z,10.60
2018-08-19T00:33:51.531Z,11.10
2018-08-19T00:36:32.512Z,10.70
2018-08-19T00:39:03.077Z,9.45
2018-08-19T00:41:33.571Z,11.50
2018-08-19T00:44:04.261Z,10.50
2018-08-19T00:46:34.733Z,9.83
2018-08-19T00:49:05.243Z,11.90
2018-08-19T00:51:36.820Z,10.30
2018-08-19T00:54:07.334Z,9.38
2018-08-19T00:56:38.059Z,10.10
2018-08-19T00:59:11.203Z,10.65
2018-08-19T01:01:41.665Z,9.85
2018-08-19T01:04:12.547Z,10.03
2018-08-19T01:06:48.305Z,9.38
2018-08-19T01:09:18.977Z,9.83
2018-08-19T01:11:49.743Z,9.18
2018-08-19T01:14:20.809Z,9.45
2018-08-19T01:16:51.473Z,10.43
2018-08-19T01:19:22.011Z,9.80
2018-08-19T01:21:54.147Z,9.38
2018-08-19T01:24:24.946Z,11.05
2018-08-19T01:26:55.817Z,9.35
2018-08-19T01:29:41.112Z,9.80
2018-08-19T01:32:12.203Z,10.68
2018-08-19T01:34:46.131Z,10.85
2018-08-19T01:37:16.563Z,10.75
2018-08-19T01:39:47.936Z,10.03
2018-08-19T01:42:18.351Z,10.72
2018-08-19T01:44:48.791Z,10.53
2018-08-19T01:47:19.303Z,10.50
2018-08-19T01:49:49.753Z,12.03
2018-08-19T01:52:20.131Z,10.60
2018-08-19T01:54:50.653Z,11.03
2018-08-19T01:57:21.195Z,11.70
2018-08-19T01:59:52.601Z,11.33
2018-08-19T02:02:23.095Z,11.25
2018-08-19T02:04:56.883Z,11.00
2018-08-19T02:07:27.681Z,10.95
2018-08-19T02:10:03.957Z,11.85
2018-08-19T02:12:39.411Z,11.57
2018-08-19T02:15:11.189Z,10.85
2018-08-19T02:18:14.425Z,11.60
2018-08-19T02:20:44.950Z,11.73
2018-08-19T02:23:15.506Z,11.45
2018-08-19T02:25:48.099Z,12.07
2018-08-19T02:28:22.369Z,12.18
2018-08-19T02:31:02.769Z,11.33
2018-08-19T02:33:36.224Z,12.53
2018-08-19T02:36:08.052Z,12.13
2018-08-19T02:38:39.093Z,13.08
2018-08-19T02:41:09.632Z,12.50
2018-08-19T02:43:50.507Z,11.78
2018-08-19T02:46:21.075Z,13.05
2018-08-19T02:48:55.450Z,13.43
2018-08-19T02:51:25.852Z,12.20
2018-08-19T02:53:57.017Z,11.60
2018-08-19T02:56:27.419Z,11.35
2018-08-19T02:58:58.209Z,12.25
2018-08-19T03:01:28.683Z,12.10
2018-08-19T03:04:00.235Z,12.15
2018-08-19T03:06:30.719Z,11.95
2018-08-19T03:09:01.159Z,11.78
2018-08-19T03:11:31.662Z,11.28
2018-08-19T03:14:02.413Z,11.80
2018-08-19T03:16:34.952Z,12.45
2018-08-19T03:19:05.397Z,12.28
2018-08-19T03:21:35.821Z,11.75
2018-08-19T03:24:06.393Z,10.98
2018-08-19T03:26:36.806Z,11.53
2018-08-19T03:29:14.158Z,11.35
2018-08-19T03:31:47.602Z,11.75
2018-08-19T03:34:18.218Z,11.57
2018-08-19T03:36:48.854Z,11.28
2018-08-19T03:39:19.219Z,11.45
2018-08-19T03:41:49.679Z,12.00
2018-08-19T03:44:21.569Z,12.98
2018-08-19T03:46:52.047Z,12.28
2018-08-19T03:49:24.144Z,11.80
2018-08-19T03:51:54.610Z,11.48
2018-08-19T03:54:25.172Z,11.73
2018-08-19T03:56:56.314Z,12.50
2018-08-19T03:59:26.718Z,11.70
2018-08-19T04:01:57.098Z,13.43
2018-08-19T04:04:27.654Z,11.43
2018-08-19T04:06:58.395Z,11.83
2018-08-19T04:09:28.802Z,12.47
2018-08-19T04:12:12.172Z,12.60
2018-08-19T04:14:42.568Z,12.07
2018-08-19T04:17:49.528Z,13.32
2018-08-19T04:20:19.978Z,12.50
2018-08-19T04:22:50.328Z,13.22
2018-08-19T04:25:25.840Z,13.53
2018-08-19T04:27:56.790Z,12.23
2018-08-19T04:30:27.265Z,12.90
2018-08-19T04:32:57.766Z,13.20
2018-08-19T04:35:27.701Z,12.73
2018-08-19T04:37:58.166Z,12.73
2018-08-19T04:40:29.042Z,14.28
2018-08-19T04:42:59.502Z,13.58
2018-08-19T04:45:29.648Z,13.20
2018-08-19T04:48:00.230Z,12.85
2018-08-19T04:50:30.152Z,12.13
2018-08-19T04:53:01.568Z,12.68
2018-08-19T04:55:32.135Z,12.37
2018-08-19T04:58:02.547Z,12.60
2018-08-19T05:00:32.950Z,12.03
2018-08-19T05:03:02.834Z,12.45
2018-08-19T05:05:33.312Z,12.70
2018-08-19T05:08:04.461Z,12.15
2018-08-19T05:10:35.109Z,12.33
2018-08-19T05:13:06.584Z,11.48
2018-08-19T05:15:37.381Z,11.33
2018-08-19T05:18:08.934Z,12.60
2018-08-19T05:20:39.598Z,12.13
2018-08-19T05:23:10.134Z,9.78
2018-08-19T05:25:45.639Z,9.83
2018-08-19T05:28:19.670Z,9.25
2018-08-19T05:30:50.356Z,9.08
2018-08-19T05:33:20.764Z,9.18
2018-08-19T05:35:51.806Z,8.95
2018-08-19T05:38:22.181Z,8.88
2018-08-19T05:40:57.684Z,8.25
2018-08-19T05:43:29.376Z,9.63
2018-08-19T05:46:01.010Z,8.70
2018-08-19T05:48:31.819Z,8.43
2018-08-19T05:51:02.239Z,8.73
2018-08-19T05:53:33.110Z,8.13
2018-08-19T05:56:03.529Z,8.60
2018-08-19T05:58:33.743Z,8.13
2018-08-19T06:01:04.301Z,10.82
2018-08-19T06:03:34.726Z,8.60
2018-08-19T06:06:05.991Z,8.63
2018-08-19T06:08:36.170Z,7.83
2018-08-19T06:11:06.359Z,8.30
2018-08-19T06:13:36.455Z,8.90
2018-08-19T06:16:07.009Z,8.33
2018-08-19T06:18:37.523Z,9.83
2018-08-19T06:21:09.425Z,8.85
2018-08-19T06:23:40.606Z,9.08
2018-08-19T06:26:11.626Z,8.78
2018-08-19T06:28:42.749Z,8.58
2018-08-19T06:31:14.171Z,8.83
2018-08-19T06:33:44.891Z,10.85
2018-08-19T06:36:16.187Z,9.50
2018-08-19T06:38:47.032Z,9.68
2018-08-19T06:41:17.575Z,9.70
2018-08-19T06:43:48.010Z,9.95
2018-08-19T06:46:18.385Z,9.45
2018-08-19T06:48:48.947Z,9.93
2018-08-19T06:51:19.336Z,9.83
2018-08-19T06:53:49.891Z,10.32
2018-08-19T06:56:20.637Z,12.65
2018-08-19T06:58:51.131Z,10.63
2018-08-19T07:01:21.473Z,10.38
2018-08-19T07:03:55.930Z,10.90
2018-08-19T07:06:26.507Z,11.68
2018-08-19T07:08:57.261Z,10.88
2018-08-19T07:11:27.721Z,10.40
2018-08-19T07:13:58.364Z,9.85
2018-08-19T07:16:28.955Z,9.78
2018-08-19T07:18:59.653Z,9.78
2018-08-19T07:21:30.037Z,10.20
2018-08-19T07:24:00.390Z,10.72
2018-08-19T07:26:30.791Z,11.45
2018-08-19T07:29:01.085Z,10.65
2018-08-19T07:31:31.747Z,10.53
2018-08-19T07:34:02.080Z,10.95
2018-08-19T07:36:32.483Z,10.95
2018-08-19T07:39:02.870Z,10.88
2018-08-19T07:41:33.258Z,11.33
2018-08-19T07:44:03.785Z,10.55
2018-08-19T07:46:34.417Z,10.10
2018-08-19T07:49:04.801Z,10.00
2018-08-19T07:51:35.922Z,10.80
2018-08-19T07:54:06.953Z,10.90
2018-08-19T07:56:37.740Z,11.85
2018-08-19T07:59:10.103Z,10.90
2018-08-19T08:01:41.074Z,12.05
2018-08-19T08:04:11.838Z,12.35
2018-08-19T08:06:42.547Z,12.03
2018-08-19T08:09:13.239Z,11.68
2018-08-19T08:11:43.699Z,12.33
2018-08-19T08:14:14.667Z,10.90
2018-08-19T08:16:50.219Z,12.05
2018-08-19T08:19:21.093Z,11.55
2018-08-19T08:21:51.991Z,11.35
2018-08-19T08:24:22.795Z,13.78
2018-08-19T08:26:56.220Z,10.88
2018-08-19T08:29:26.973Z,9.45
2018-08-19T08:31:58.578Z,11.38
2018-08-19T08:34:30.092Z,12.15
2018-08-19T08:37:05.690Z,11.53
2018-08-19T08:39:37.152Z,11.15
2018-08-19T08:42:08.191Z,12.25
2018-08-19T08:44:38.736Z,12.30
2018-08-19T08:47:11.538Z,13.35
2018-08-19T08:49:47.858Z,12.13
2018-08-19T08:52:25.383Z,11.65
2018-08-19T08:54:57.936Z,9.83
2018-08-19T08:57:28.812Z,10.75
2018-08-19T08:59:59.597Z,13.85
2018-08-19T09:02:30.050Z,11.15
2018-08-19T09:05:00.794Z,12.10
2018-08-19T09:07:31.324Z,11.93
2018-08-19T09:10:01.824Z,11.43
2018-08-19T09:12:52.803Z,10.98
2018-08-19T09:15:23.346Z,10.38
2018-08-19T09:17:54.271Z,10.90
2018-08-19T09:20:24.797Z,11.65
2018-08-19T09:22:55.248Z,10.75
2018-08-19T09:25:25.994Z,11.80
2018-08-19T09:27:56.480Z,10.23
2018-08-19T09:30:44.258Z,10.50
2018-08-19T09:33:15.200Z,11.00
2018-08-19T09:35:45.612Z,9.65
2018-08-19T09:38:20.682Z,10.03
2018-08-19T09:41:47.384Z,9.20
2018-08-19T09:44:17.788Z,10.00
2018-08-19T09:46:48.114Z,10.72
2018-08-19T09:49:18.553Z,12.00
2018-08-19T09:51:49.379Z,9.00
2018-08-19T09:54:25.966Z,9.23
2018-08-19T09:56:56.706Z,10.28
2018-08-19T09:59:27.140Z,10.30
2018-08-19T10:01:58.212Z,10.95
2018-08-19T10:04:28.870Z,9.60
2018-08-19T10:07:05.044Z,11.08
2018-08-19T10:09:36.264Z,9.75
2018-08-19T10:12:07.038Z,12.25
2018-08-19T10:14:37.750Z,9.93
2018-08-19T10:17:08.625Z,9.10
2018-08-19T10:19:39.206Z,10.18
2018-08-19T10:22:09.881Z,9.53
2018-08-19T10:24:40.239Z,11.75
2018-08-19T10:27:10.606Z,9.50
2018-08-19T10:29:41.034Z,14.23
2018-08-19T10:32:11.470Z,11.80
2018-08-19T10:34:41.933Z,9.85
2018-08-19T10:37:12.340Z,8.23
2018-08-19T10:39:42.728Z,13.00
2018-08-19T10:42:23.790Z,11.38
2018-08-19T10:44:54.197Z,11.08
2018-08-19T10:47:24.875Z,10.80
2018-08-19T10:49:59.730Z,10.13
2018-08-19T10:52:31.503Z,14.13
2018-08-19T10:55:02.605Z,10.53
2018-08-19T10:57:33.078Z,11.80
2018-08-19T11:00:03.502Z,11.03
2018-08-19T11:02:34.282Z,10.65
2018-08-19T11:05:04.695Z,8.83
2018-08-19T11:07:35.405Z,9.03
2018-08-19T11:10:20.810Z,9.60
2018-08-19T11:12:54.972Z,10.78
2018-08-19T11:15:49.903Z,11.95
2018-08-19T11:18:28.690Z,9.88
2018-08-19T11:21:03.606Z,9.73
2018-08-19T11:23:37.813Z,8.78
2018-08-19T11:26:09.541Z,10.08
2018-08-19T11:28:48.874Z,9.03
2018-08-19T11:31:25.770Z,7.62
2018-08-19T11:34:00.025Z,8.43
2018-08-19T11:36:37.091Z,8.43
2018-08-19T11:39:14.680Z,8.10
2018-08-19T11:41:45.107Z,7.90
2018-08-19T11:44:17.044Z,10.10
2018-08-19T11:46:47.532Z,8.93
2018-08-19T11:49:19.619Z,8.03
2018-08-19T11:51:57.489Z,8.15
2018-08-19T11:54:28.564Z,10.03
2018-08-19T11:57:07.982Z,7.85
2018-08-19T11:59:40.707Z,7.70
2018-08-19T12:02:13.629Z,8.28
2018-08-19T12:04:44.578Z,7.67
2018-08-19T12:07:15.079Z,8.65
2018-08-19T12:10:00.161Z,7.80
2018-08-19T12:12:46.119Z,9.85
2018-08-19T12:15:16.353Z,8.93
2018-08-19T12:17:46.509Z,8.27
2018-08-19T12:20:23.450Z,9.40
2018-08-19T12:22:54.150Z,8.80
2018-08-19T12:25:24.888Z,7.37
2018-08-19T12:27:55.378Z,7.28
2018-08-19T12:30:25.932Z,7.90
2018-08-19T12:33:11.667Z,10.43
2018-08-19T12:35:41.891Z,7.97
2018-08-19T12:38:13.084Z,9.83
2018-08-19T12:40:46.244Z,7.63
2018-08-19T12:43:16.763Z,7.00
2018-08-19T12:45:47.182Z,7.73
2018-08-19T12:48:17.851Z,10.10
2018-08-19T12:50:52.972Z,7.53
2018-08-19T12:53:23.096Z,7.83
2018-08-19T12:55:53.564Z,7.22
2018-08-19T12:58:23.836Z,9.93
2018-08-19T13:00:54.016Z,8.37
2018-08-19T13:03:28.127Z,7.30
2018-08-19T13:06:04.455Z,7.00
2018-08-19T13:08:35.162Z,9.70
2018-08-19T13:11:07.428Z,7.70
2018-08-19T13:13:37.603Z,6.90
2018-08-19T13:16:08.389Z,10.50
2018-08-19T13:18:41.297Z,9.00
2018-08-19T13:21:16.133Z,6.63
2018-08-19T13:23:46.409Z,8.17
2018-08-19T13:26:16.534Z,9.10
2018-08-19T13:28:52.451Z,10.98
2018-08-19T13:31:29.717Z,7.40
2018-08-19T13:34:00.844Z,7.10
2018-08-19T13:36:31.006Z,7.93
2018-08-19T13:39:01.426Z,8.23
2018-08-19T13:41:31.889Z,7.40
2018-08-19T13:44:02.345Z,8.35
2018-08-19T13:46:32.851Z,7.23
2018-08-19T13:49:03.198Z,8.20
2018-08-19T13:51:33.394Z,8.00
2018-08-19T13:54:04.308Z,9.98
2018-08-19T13:56:34.385Z,10.03
2018-08-19T13:59:04.582Z,7.00
2018-08-19T14:01:34.980Z,6.40
2018-08-19T14:04:05.188Z,7.53
2018-08-19T14:06:35.280Z,7.70
2018-08-19T14:09:06.750Z,7.93
2018-08-19T14:11:36.842Z,8.67
2018-08-19T14:14:07.341Z,6.90
2018-08-19T14:16:37.458Z,6.70
2018-08-19T14:19:07.805Z,7.43
2018-08-19T14:21:38.293Z,7.23
2018-08-19T14:24:08.329Z,7.07
2018-08-19T14:26:38.396Z,8.90
2018-08-19T14:29:08.754Z,6.60
2018-08-19T14:31:38.953Z,6.40
2018-08-19T14:34:09.114Z,7.70
2018-08-19T14:36:39.300Z,7.77
2018-08-19T14:39:09.371Z,6.67
2018-08-19T14:41:39.493Z,8.40
2018-08-19T14:44:09.582Z,6.43
2018-08-19T14:46:40.021Z,7.60
2018-08-19T14:49:10.357Z,6.43
2018-08-19T14:51:58.803Z,6.40
2018-08-19T14:54:29.503Z,6.30
2018-08-19T14:57:00.738Z,6.20
2018-08-19T14:59:31.261Z,7.07
2018-08-19T15:02:01.540Z,6.13
2018-08-19T15:04:31.894Z,5.77
2018-08-19T15:07:02.096Z,5.77
2018-08-19T15:09:35.312Z,8.10
2018-08-19T15:12:15.084Z,6.47
2018-08-19T15:14:45.398Z,5.43
2018-08-19T15:17:15.623Z,5.83
2018-08-19T15:19:50.139Z,5.40
2018-08-19T15:22:20.692Z,5.83
2018-08-19T15:24:51.314Z,6.23
2018-08-19T15:27:21.866Z,5.73
2018-08-19T15:29:54.262Z,5.27
2018-08-19T15:32:25.547Z,5.13
2018-08-19T15:34:56.182Z,4.73
2018-08-19T15:37:26.309Z,5.17
2018-08-19T15:39:56.475Z,4.73
2018-08-19T15:42:26.708Z,5.13
2018-08-19T15:44:56.849Z,4.93
2018-08-19T15:47:26.915Z,5.17
2018-08-19T15:50:13.927Z,5.50
2018-08-19T15:52:44.839Z,5.40
2018-08-19T15:55:15.188Z,5.00
2018-08-19T15:57:45.676Z,5.30
2018-08-19T16:00:15.804Z,5.03
2018-08-19T16:02:45.891Z,5.20
2018-08-19T16:05:17.068Z,5.50
2018-08-19T16:07:47.597Z,5.83
2018-08-19T16:10:17.932Z,5.50
2018-08-19T16:12:51.204Z,5.23
2018-08-19T16:15:25.322Z,5.00
2018-08-19T16:17:56.975Z,7.17
2018-08-19T16:20:27.195Z,5.47
2018-08-19T16:22:57.396Z,4.80
2018-08-19T16:25:27.552Z,5.13
2018-08-19T16:27:58.289Z,5.83
2018-08-19T16:30:28.418Z,5.23
2018-08-19T16:32:58.513Z,5.67
2018-08-19T16:35:28.722Z,5.73
2018-08-19T16:37:58.858Z,5.40
2018-08-19T16:40:30.153Z,6.10
2018-08-19T16:43:00.211Z,5.43
2018-08-19T16:45:30.383Z,5.43
2018-08-19T16:48:00.540Z,7.20
2018-08-19T16:50:31.237Z,6.33
2018-08-19T16:53:01.434Z,5.60
2018-08-19T16:55:31.546Z,5.17
2018-08-19T16:58:01.693Z,6.33
2018-08-19T17:00:31.824Z,5.43
2018-08-19T17:03:06.543Z,5.23
2018-08-19T17:05:36.917Z,5.73
2018-08-19T17:08:07.831Z,5.07
2018-08-19T17:10:37.974Z,6.00
2018-08-19T17:13:08.173Z,5.43
2018-08-19T17:15:38.425Z,5.90
2018-08-19T17:18:09.150Z,5.83
2018-08-19T17:24:16.167Z,5.63
2018-08-19T17:26:47.032Z,5.90
2018-08-19T17:29:19.351Z,6.33
2018-08-19T17:31:49.826Z,6.47
2018-08-19T17:34:20.657Z,5.63
2018-08-19T17:40:29.587Z,7.70
2018-08-19T17:43:00.563Z,6.28
2018-08-19T17:45:31.013Z,6.72
2018-08-19T17:48:01.615Z,7.28
2018-08-19T17:50:32.421Z,5.87
2018-08-19T17:53:03.325Z,6.20
2018-08-19T17:55:33.825Z,6.37
2018-08-19T17:58:04.465Z,5.90
2018-08-19T18:00:34.965Z,5.95
2018-08-19T18:06:41.988Z,5.83
2018-08-19T18:09:16.580Z,6.05
2018-08-19T18:11:53.649Z,6.67
2018-08-19T18:14:23.993Z,6.10
2018-08-19T18:16:54.550Z,7.20
2018-08-19T18:19:24.955Z,6.92
2018-08-19T18:21:55.412Z,6.20
2018-08-19T18:24:25.819Z,6.37
2018-08-19T18:26:56.552Z,6.95
2018-08-19T18:29:32.403Z,6.92
2018-08-19T18:32:02.799Z,7.33
2018-08-19T18:34:34.163Z,7.75
2018-08-19T18:37:04.717Z,9.10
2018-08-19T18:39:35.189Z,7.10
2018-08-19T18:42:05.775Z,6.85
2018-08-19T18:44:36.622Z,6.17
2018-08-19T18:47:08.060Z,6.90
2018-08-19T18:49:38.395Z,6.80
2018-08-19T18:52:14.033Z,7.40
2018-08-19T18:54:44.513Z,7.62
2018-08-19T18:57:14.876Z,7.25
2018-08-19T18:59:45.240Z,5.95
2018-08-19T19:02:15.627Z,6.80
2018-08-19T19:04:46.261Z,6.28
2018-08-19T19:07:16.781Z,6.85
2018-08-19T19:09:51.019Z,7.05
2018-08-19T19:12:23.627Z,9.55
2018-08-19T19:14:54.377Z,7.53
2018-08-19T19:17:24.828Z,6.62
2018-08-19T19:19:55.248Z,7.72
2018-08-19T19:22:26.026Z,7.35
2018-08-19T19:24:56.477Z,6.20
2018-08-19T19:27:26.949Z,7.37
2018-08-19T19:30:02.765Z,7.37
2018-08-19T19:32:33.187Z,7.35
2018-08-19T19:35:10.022Z,8.08
2018-08-19T19:37:41.083Z,6.65
2018-08-19T19:43:47.767Z,7.42
2018-08-19T19:46:18.545Z,7.33
2018-08-19T19:48:49.229Z,7.30
2018-08-19T19:51:19.673Z,8.00
2018-08-19T19:53:50.287Z,6.97
2018-08-19T19:56:20.937Z,6.67
2018-08-19T19:58:51.345Z,9.15
2018-08-19T20:01:21.752Z,7.65
2018-08-19T20:03:54.364Z,10.08
2018-08-19T20:06:25.771Z,7.00
2018-08-19T20:09:00.028Z,7.00
2018-08-19T20:11:31.399Z,8.40
2018-08-19T20:14:03.156Z,7.25
2018-08-19T20:16:33.585Z,7.33
2018-08-19T20:19:05.258Z,8.03
2018-08-19T20:21:37.266Z,6.75
2018-08-19T20:24:07.824Z,6.87
2018-08-19T20:26:38.332Z,7.33
2018-08-19T20:29:08.930Z,7.50
2018-08-19T20:31:39.700Z,6.55
2018-08-19T20:34:10.240Z,6.50
2018-08-19T20:36:40.611Z,7.47
2018-08-19T20:39:11.360Z,7.92
2018-08-19T20:41:41.732Z,6.90
2018-08-19T20:44:12.269Z,6.62
2018-08-19T20:46:48.395Z,7.87
2018-08-19T20:49:18.774Z,8.45
2018-08-19T20:51:49.214Z,6.95
2018-08-19T20:54:19.613Z,8.48
2018-08-19T20:56:50.127Z,7.00
2018-08-19T20:59:37.895Z,6.85
2018-08-19T21:02:09.517Z,7.22
2018-08-19T21:04:40.724Z,7.03
2018-08-19T21:07:11.158Z,6.92
2018-08-19T21:09:42.072Z,7.87
2018-08-19T21:12:12.724Z,7.28
2018-08-19T21:14:43.213Z,7.80
2018-08-19T21:17:13.816Z,7.20
2018-08-19T21:19:45.262Z,9.20
2018-08-19T21:22:15.978Z,7.53
2018-08-19T21:24:46.408Z,7.22
2018-08-19T21:27:16.904Z,7.37
2018-08-19T21:29:47.428Z,7.50
2018-08-19T21:32:17.954Z,6.70
2018-08-19T21:34:49.058Z,8.20
2018-08-19T21:37:27.508Z,7.58
2018-08-19T21:39:58.044Z,8.50
2018-08-19T21:42:28.486Z,7.10
2018-08-19T21:44:58.935Z,7.12
2018-08-19T21:47:29.770Z,7.08
2018-08-19T21:50:00.808Z,7.75
2018-08-19T21:52:31.363Z,8.65
2018-08-19T21:55:02.302Z,7.55
2018-08-19T21:57:32.656Z,7.75
2018-08-19T22:00:03.174Z,8.25
2018-08-19T22:03:39.653Z,8.65
2018-08-19T22:06:48.123Z,7.83
2018-08-19T22:09:33.560Z,7.10
2018-08-19T22:12:04.592Z,8.18
2018-08-19T22:14:35.084Z,7.37
2018-08-19T22:17:09.708Z,7.60
2018-08-19T22:19:41.059Z,8.43
2018-08-19T22:22:11.682Z,7.33
2018-08-19T22:24:42.203Z,7.55
2018-08-19T22:27:17.348Z,7.92
2018-08-19T22:29:49.374Z,7.65
2018-08-19T22:32:21.588Z,8.13
2018-08-19T22:34:52.062Z,9.23
2018-08-19T22:37:23.302Z,6.78
2018-08-19T22:39:53.868Z,8.38
2018-08-19T22:42:24.508Z,8.60
2018-08-19T22:44:55.684Z,7.00
2018-08-19T22:47:26.150Z,7.67
2018-08-19T22:49:58.468Z,7.62
2018-08-19T22:52:29.123Z,7.40
2018-08-19T22:55:00.177Z,8.78
2018-08-19T22:57:30.634Z,7.90
2018-08-19T23:00:01.445Z,7.70
2018-08-19T23:02:31.916Z,7.65
2018-08-19T23:05:02.444Z,7.75
2018-08-19T23:07:32.980Z,6.97
2018-08-19T23:10:03.730Z,10.25
2018-08-19T23:12:34.332Z,7.75
2018-08-19T23:15:21.176Z,8.43
2018-08-19T23:17:51.640Z,7.85
2018-08-19T23:20:22.180Z,7.72
2018-08-19T23:22:52.836Z,8.55
2018-08-19T23:25:23.294Z,8.60
2018-08-19T23:27:54.400Z,7.87
2018-08-19T23:30:25.706Z,7.75
2018-08-19T23:32:56.125Z,8.10
2018-08-19T23:35:27.378Z,8.73
2018-08-19T23:37:57.906Z,8.15
2018-08-19T23:40:28.498Z,8.90
2018-08-19T23:42:58.949Z,8.35
2018-08-19T23:45:29.564Z,10.75
2018-08-19T23:47:59.997Z,8.35
2018-08-19T23:50:30.786Z,7.60
2018-08-19T23:53:02.057Z,7.67
2018-08-19T23:55:35.209Z,8.25
2018-08-19T23:58:06.001Z,7.40
